createdAt,value
2024-02-04T00:02:32.233Z,25.77
2024-02-04T00:05:19.723Z,35.42
2024-02-04T00:08:07.239Z,28.80
2024-02-04T00:13:41.934Z,27.45
2024-02-04T00:16:29.360Z,27.05
2024-02-04T00:19:16.917Z,27.58
2024-02-04T00:24:52.144Z,24.58
2024-02-04T00:30:27.764Z,23.38
2024-02-04T00:33:15.387Z,24.13
2024-02-04T00:38:50.539Z,24.27
2024-02-04T00:44:25.509Z,24.35
2024-02-04T00:47:14.570Z,28.75
2024-02-04T00:50:02.272Z,29.05
2024-02-04T00:52:49.739Z,26.05
2024-02-04T00:55:37.288Z,28.40
2024-02-04T00:58:24.714Z,28.20
2024-02-04T01:01:12.227Z,31.77
2024-02-04T01:06:56.656Z,34.28
2024-02-04T01:09:48.664Z,30.80
2024-02-04T01:12:36.102Z,27.52
2024-02-04T01:15:23.625Z,33.50
2024-02-04T01:18:11.049Z,27.27
2024-02-04T01:20:59.466Z,28.70
2024-02-04T01:23:46.857Z,24.30
2024-02-04T01:26:34.392Z,32.08
2024-02-04T01:29:21.795Z,34.25
2024-02-04T01:32:09.219Z,39.63
2024-02-04T01:34:56.685Z,34.05
2024-02-04T01:37:49.706Z,31.50
2024-02-04T01:40:37.304Z,29.27
2024-02-04T01:43:24.993Z,33.15
2024-02-04T01:46:13.308Z,32.10
2024-02-04T01:49:01.173Z,35.47
2024-02-04T01:51:48.769Z,32.10
2024-02-04T01:57:25.900Z,35.05
2024-02-04T02:00:14.292Z,29.95
2024-02-04T02:03:02.963Z,42.60
2024-02-04T02:05:51.657Z,33.47
2024-02-04T02:08:41.659Z,35.03
2024-02-04T02:11:41.765Z,40.63
2024-02-04T02:14:34.842Z,40.50
2024-02-04T02:17:34.934Z,38.72
2024-02-04T02:21:14.185Z,34.83
2024-02-04T02:24:25.194Z,34.50
2024-02-04T02:27:12.641Z,34.65
2024-02-04T02:30:00.053Z,36.08
2024-02-04T02:32:49.453Z,32.58
2024-02-04T02:35:37.291Z,33.15
2024-02-04T02:38:57.868Z,27.10
2024-02-04T02:41:52.303Z,26.50
2024-02-04T02:44:41.050Z,25.80
2024-02-04T02:47:30.761Z,34.97
2024-02-04T02:50:19.085Z,26.27
2024-02-04T02:53:06.994Z,22.75
2024-02-04T02:55:54.850Z,28.30
2024-02-04T03:01:29.708Z,27.65
2024-02-04T03:04:17.686Z,29.80
2024-02-04T03:07:05.624Z,29.70
2024-02-04T03:09:55.711Z,23.90
2024-02-04T03:12:43.105Z,26.60
2024-02-04T03:15:30.765Z,25.50
2024-02-04T03:18:18.248Z,26.20
2024-02-04T03:21:06.014Z,29.05
2024-02-04T03:23:53.427Z,24.08
2024-02-04T03:26:41.105Z,21.02
2024-02-04T03:29:28.624Z,28.55
2024-02-04T03:32:16.364Z,23.98
2024-02-04T03:35:05.088Z,27.30
2024-02-04T03:37:53.903Z,25.33
2024-02-04T03:40:43.989Z,29.80
2024-02-04T03:43:31.478Z,20.80
2024-02-04T03:46:18.984Z,24.85
2024-02-04T03:49:09.522Z,22.38
2024-02-04T03:51:57.034Z,23.65
2024-02-04T03:54:44.741Z,20.33
2024-02-04T04:00:21.788Z,16.33
2024-02-04T04:03:09.222Z,25.50
2024-02-04T04:05:56.861Z,21.38
2024-02-04T04:11:31.680Z,21.13
2024-02-04T04:14:19.207Z,18.23
2024-02-04T04:19:54.023Z,21.50
2024-02-04T04:25:29.705Z,22.58
2024-02-04T04:28:17.208Z,17.33
2024-02-04T04:31:05.156Z,22.48
2024-02-04T04:33:54.930Z,21.38
2024-02-04T04:36:42.519Z,20.85
2024-02-04T04:39:29.992Z,26.38
2024-02-04T04:42:17.441Z,22.42
2024-02-04T04:45:05.437Z,25.10
2024-02-04T04:47:52.971Z,21.40
2024-02-04T04:53:27.699Z,27.67
2024-02-04T04:56:15.135Z,23.63
2024-02-04T04:59:02.520Z,28.35
2024-02-04T05:01:50.418Z,29.70
2024-02-04T05:04:38.315Z,25.10
2024-02-04T05:07:27.112Z,28.55
2024-02-04T05:10:14.709Z,25.20
2024-02-04T05:15:49.730Z,29.45
2024-02-04T05:21:25.265Z,31.80
2024-02-04T05:24:12.804Z,30.38
2024-02-04T05:29:47.562Z,27.65
2024-02-04T05:35:22.380Z,25.23
2024-02-04T05:40:57.915Z,22.75
2024-02-04T05:43:46.579Z,22.33
2024-02-04T05:46:34.371Z,23.15
2024-02-04T05:49:21.920Z,21.73
2024-02-04T05:54:56.853Z,21.33
2024-02-04T05:57:44.957Z,20.23
2024-02-04T06:00:32.443Z,19.38
2024-02-04T06:03:19.934Z,20.92
2024-02-04T06:08:55.066Z,22.90
2024-02-04T06:11:46.123Z,17.42
2024-02-04T06:14:37.397Z,19.83
2024-02-04T06:17:24.813Z,22.38
2024-02-04T06:20:12.511Z,17.10
2024-02-04T06:23:00.303Z,18.70
2024-02-04T06:25:47.831Z,17.42
2024-02-04T06:31:22.729Z,19.30
2024-02-04T06:34:10.121Z,20.02
2024-02-04T06:36:57.687Z,17.10
2024-02-04T06:42:32.549Z,19.48
2024-02-04T06:45:20.035Z,18.90
2024-02-04T06:48:08.701Z,18.85
2024-02-04T06:50:56.375Z,20.95
2024-02-04T06:56:31.227Z,17.23
2024-02-04T06:59:18.652Z,19.13
2024-02-04T07:02:06.576Z,17.52
2024-02-04T07:04:55.192Z,15.55
2024-02-04T07:07:42.696Z,17.88
2024-02-04T07:10:30.070Z,15.30
2024-02-04T07:13:17.551Z,11.63
2024-02-04T07:16:05.143Z,14.95
2024-02-04T07:21:40.092Z,17.85
2024-02-04T07:24:27.642Z,11.85
2024-02-04T07:27:15.175Z,15.43
2024-02-04T07:30:04.056Z,17.60
2024-02-04T07:32:51.977Z,20.35
2024-02-04T07:35:39.442Z,17.25
2024-02-04T07:38:26.841Z,20.23
2024-02-04T07:41:17.893Z,19.92
2024-02-04T07:44:05.839Z,19.92
2024-02-04T07:46:53.263Z,17.02
2024-02-04T07:49:40.806Z,17.95
2024-02-04T07:55:15.697Z,14.73
2024-02-04T08:00:50.768Z,19.73
2024-02-04T08:03:38.493Z,17.23
2024-02-04T08:06:26.422Z,17.48
2024-02-04T08:09:14.013Z,17.35
2024-02-04T08:14:49.181Z,17.10
2024-02-04T08:17:36.748Z,15.80
2024-02-04T08:23:11.428Z,15.57
2024-02-04T08:25:59.124Z,13.88
2024-02-04T08:31:36.633Z,15.00
2024-02-04T08:34:27.298Z,13.40
2024-02-04T08:37:15.069Z,14.48
2024-02-04T08:40:03.623Z,15.10
2024-02-04T08:42:51.100Z,15.02
2024-02-04T08:45:38.793Z,14.40
2024-02-04T08:48:26.347Z,17.55
2024-02-04T08:54:02.117Z,14.18
2024-02-04T08:56:49.550Z,15.95
2024-02-04T08:59:37.013Z,13.30
2024-02-04T09:02:24.471Z,12.82
2024-02-04T09:05:12.011Z,15.07
2024-02-04T09:07:59.556Z,13.32
2024-02-04T09:13:34.289Z,13.50
2024-02-04T09:16:21.854Z,10.77
2024-02-04T09:21:57.155Z,10.37
2024-02-04T09:24:44.720Z,9.93
2024-02-04T09:30:19.888Z,9.50
2024-02-04T09:33:07.774Z,9.45
2024-02-04T09:35:55.605Z,8.27
2024-02-04T09:38:43.342Z,9.60
2024-02-04T09:41:31.924Z,8.65
2024-02-04T09:44:19.962Z,7.35
2024-02-04T09:47:10.060Z,11.32
2024-02-04T09:49:58.031Z,9.13
2024-02-04T09:52:54.334Z,7.97
2024-02-04T09:55:43.126Z,12.25
2024-02-04T09:58:31.377Z,7.35
2024-02-04T10:01:19.947Z,6.95
2024-02-04T10:04:07.448Z,7.97
2024-02-04T10:06:55.275Z,5.78
2024-02-04T10:09:42.935Z,5.30
2024-02-04T10:15:17.998Z,5.10
2024-02-04T10:20:54.061Z,5.47
2024-02-04T10:23:41.467Z,4.28
2024-02-04T10:26:32.828Z,8.25
2024-02-04T10:29:20.349Z,7.50
2024-02-04T10:32:09.739Z,7.45
2024-02-04T10:34:59.259Z,8.52
2024-02-04T10:37:47.205Z,9.07
2024-02-04T10:40:34.640Z,10.60
2024-02-04T10:43:26.150Z,9.60
2024-02-04T10:46:21.830Z,12.85
2024-02-04T10:49:14.832Z,12.73
2024-02-04T10:52:04.792Z,13.40
2024-02-04T10:54:53.797Z,13.77
2024-02-04T10:57:42.012Z,16.63
2024-02-04T11:00:31.974Z,14.57
2024-02-04T11:03:22.819Z,13.20
2024-02-04T11:06:12.705Z,14.02
2024-02-04T11:09:01.735Z,18.50
2024-02-04T11:11:50.050Z,16.63
2024-02-04T11:14:40.788Z,16.65
2024-02-04T11:17:34.052Z,16.38
2024-02-04T11:20:47.735Z,13.82
2024-02-04T11:24:19.019Z,14.05
2024-02-04T11:27:09.064Z,16.65
2024-02-04T11:29:57.348Z,14.45
2024-02-04T11:32:46.010Z,14.77
2024-02-04T11:35:38.130Z,13.55
2024-02-04T11:38:37.251Z,15.48
2024-02-04T11:41:26.770Z,16.60
2024-02-04T11:44:23.984Z,19.80
2024-02-04T11:47:11.896Z,16.57
2024-02-04T11:50:00.455Z,24.38
2024-02-04T11:52:48.805Z,17.80
2024-02-04T11:55:40.227Z,17.33
2024-02-04T11:58:30.940Z,21.27
2024-02-04T12:01:18.504Z,20.63
2024-02-04T12:07:01.886Z,18.73
2024-02-04T12:09:50.576Z,16.67
2024-02-04T12:12:39.208Z,16.20
2024-02-04T12:15:27.373Z,14.00
2024-02-04T12:18:21.259Z,14.65
2024-02-04T12:21:08.936Z,13.70
2024-02-04T12:23:56.862Z,13.35
2024-02-04T12:26:47.183Z,14.10
2024-02-04T12:29:34.890Z,12.73
2024-02-04T12:32:22.440Z,13.30
2024-02-04T12:38:02.268Z,12.43
2024-02-04T12:40:49.524Z,12.98
2024-02-04T12:43:37.690Z,10.60
2024-02-04T12:46:25.598Z,10.75
2024-02-04T12:49:26.282Z,8.90
2024-02-04T12:52:13.924Z,10.82
2024-02-04T12:57:48.862Z,6.90
2024-02-04T13:03:25.729Z,6.85
2024-02-04T13:06:13.250Z,6.65
2024-02-04T13:11:49.026Z,6.32
2024-02-04T13:14:40.356Z,6.13
2024-02-04T13:17:27.807Z,6.55
2024-02-04T13:23:06.234Z,6.32
2024-02-04T13:25:53.969Z,7.60
2024-02-04T13:31:29.807Z,5.18
2024-02-04T13:34:21.473Z,10.18
2024-02-04T13:37:09.515Z,4.35
2024-02-04T13:39:57.253Z,6.47
2024-02-04T13:42:45.318Z,8.07
2024-02-04T13:45:32.806Z,5.40
2024-02-04T13:51:09.195Z,4.63
2024-02-04T13:53:56.558Z,6.80
2024-02-04T13:56:44.094Z,6.20
2024-02-04T14:02:19.125Z,8.95
2024-02-04T14:05:07.293Z,4.97
2024-02-04T14:07:58.548Z,5.22
2024-02-04T14:10:47.952Z,7.55
2024-02-04T14:13:35.903Z,4.85
2024-02-04T14:16:23.477Z,4.53
2024-02-04T14:21:58.449Z,4.75
2024-02-04T14:27:34.436Z,3.20
2024-02-04T14:33:09.559Z,7.57
2024-02-04T14:35:58.644Z,5.63
2024-02-04T14:38:46.078Z,5.35
2024-02-04T14:41:38.917Z,6.20
2024-02-04T14:44:26.669Z,4.63
2024-02-04T14:47:15.226Z,8.45
2024-02-04T14:50:03.704Z,5.28
2024-02-04T14:52:51.232Z,4.65
2024-02-04T14:55:38.703Z,4.07
2024-02-04T14:58:26.323Z,3.33
2024-02-04T15:04:01.421Z,4.25
2024-02-04T15:06:49.013Z,6.22
2024-02-04T15:12:23.959Z,4.78
2024-02-04T15:15:12.311Z,6.03
2024-02-04T15:18:00.280Z,5.00
2024-02-04T15:20:48.124Z,5.80
2024-02-04T15:23:36.609Z,6.25
2024-02-04T15:26:27.861Z,8.60
2024-02-04T15:29:17.866Z,9.63
2024-02-04T15:32:06.209Z,6.55
2024-02-04T15:34:55.492Z,8.90
2024-02-04T15:37:43.038Z,6.15
2024-02-04T15:40:30.579Z,6.68
2024-02-04T15:43:18.090Z,5.80
2024-02-04T15:49:02.689Z,10.75
2024-02-04T15:51:50.708Z,7.50
2024-02-04T15:54:38.788Z,8.13
2024-02-04T15:57:34.335Z,6.45
2024-02-04T16:00:29.265Z,9.50
2024-02-04T16:03:17.699Z,11.75
2024-02-04T16:06:05.811Z,7.93
2024-02-04T16:08:53.683Z,8.63
2024-02-04T16:12:00.671Z,10.07
2024-02-04T16:14:50.959Z,11.68
2024-02-04T16:17:42.519Z,10.07
2024-02-04T16:20:31.312Z,9.00
2024-02-04T16:23:20.551Z,8.60
2024-02-04T16:26:08.769Z,9.73
2024-02-04T16:28:56.181Z,9.20
2024-02-04T16:31:43.676Z,9.93
2024-02-04T16:34:34.867Z,13.00
2024-02-04T16:37:22.510Z,9.30
2024-02-04T16:40:10.529Z,13.20
2024-02-04T16:42:58.017Z,11.07
2024-02-04T16:45:45.523Z,9.77
2024-02-04T16:48:33.066Z,11.30
2024-02-04T16:54:09.305Z,14.88
2024-02-04T16:56:58.461Z,10.85
2024-02-04T16:59:47.116Z,13.30
2024-02-04T17:02:34.780Z,11.10
2024-02-04T17:05:23.201Z,11.18
2024-02-04T17:08:12.933Z,10.30
2024-02-04T17:11:00.823Z,10.32
2024-02-04T17:13:48.768Z,10.65
2024-02-04T17:17:00.012Z,9.45
2024-02-04T17:20:28.732Z,12.07
2024-02-04T17:23:21.157Z,12.65
2024-02-04T17:26:09.759Z,11.93
2024-02-04T17:28:57.592Z,13.38
2024-02-04T17:31:45.610Z,14.85
2024-02-04T17:34:33.562Z,13.98
2024-02-04T17:37:21.199Z,13.50
2024-02-04T17:40:10.550Z,10.77
2024-02-04T17:42:59.118Z,10.90
2024-02-04T17:45:46.581Z,15.80
2024-02-04T17:51:21.910Z,13.18
2024-02-04T17:56:56.677Z,12.93
2024-02-04T17:59:45.305Z,14.20
2024-02-04T18:02:42.086Z,14.82
2024-02-04T18:05:38.977Z,21.10
2024-02-04T18:08:29.298Z,16.17
2024-02-04T18:11:23.673Z,15.98
2024-02-04T18:14:11.328Z,15.40
2024-02-04T18:16:58.815Z,21.02
2024-02-04T18:19:46.995Z,17.38
2024-02-04T18:22:35.767Z,13.95
2024-02-04T18:25:23.180Z,18.15
2024-02-04T18:28:10.702Z,18.02
2024-02-04T18:33:50.601Z,21.55
2024-02-04T18:36:38.111Z,20.58
2024-02-04T18:39:25.676Z,22.90
2024-02-04T18:42:14.042Z,25.67
2024-02-04T18:45:01.493Z,24.00
2024-02-04T18:50:36.259Z,26.38
2024-02-04T18:53:23.711Z,29.58
2024-02-04T18:56:16.480Z,24.45
2024-02-04T18:59:04.058Z,28.23
2024-02-04T19:04:40.810Z,31.50
2024-02-04T19:07:28.738Z,25.58
2024-02-04T19:10:16.342Z,24.98
2024-02-04T19:15:51.987Z,26.33
2024-02-04T19:18:39.789Z,22.02
2024-02-04T19:21:28.542Z,21.80
2024-02-04T19:24:20.053Z,17.65
2024-02-04T19:27:07.843Z,19.08
2024-02-04T19:29:55.460Z,17.15
2024-02-04T19:35:32.758Z,17.02
2024-02-04T19:38:20.209Z,18.20
2024-02-04T19:41:07.751Z,16.50
2024-02-04T19:43:55.160Z,14.25
2024-02-04T19:46:42.743Z,16.52
2024-02-04T19:52:18.813Z,15.63
2024-02-04T19:55:07.174Z,14.70
2024-02-04T19:57:54.660Z,20.13
2024-02-04T20:00:42.160Z,14.57
2024-02-04T20:03:29.837Z,17.67
2024-02-04T20:09:06.190Z,16.52
2024-02-04T20:11:54.624Z,13.70
2024-02-04T20:14:41.990Z,17.58
2024-02-04T20:17:29.863Z,13.88
2024-02-04T20:20:19.812Z,19.05
2024-02-04T20:23:07.292Z,18.42
2024-02-04T20:25:57.036Z,17.60
2024-02-04T20:28:44.700Z,17.77
2024-02-04T20:31:32.950Z,16.50
2024-02-04T20:34:20.495Z,16.38
2024-02-04T20:37:08.531Z,14.20
2024-02-04T20:39:56.149Z,17.02
2024-02-04T20:42:43.642Z,16.35
2024-02-04T20:45:31.510Z,18.02
2024-02-04T20:48:19.043Z,16.60
2024-02-04T20:53:53.952Z,15.32
2024-02-04T20:56:43.373Z,20.48
2024-02-04T20:59:32.721Z,17.92
2024-02-04T21:02:20.111Z,12.55
2024-02-04T21:05:07.870Z,13.90
2024-02-04T21:07:57.058Z,13.57
2024-02-04T21:10:44.597Z,14.25
2024-02-04T21:16:19.591Z,16.63
2024-02-04T21:19:07.529Z,17.10
2024-02-04T21:21:55.193Z,19.73
2024-02-04T21:27:33.259Z,15.75
2024-02-04T21:30:20.971Z,15.43
2024-02-04T21:33:09.347Z,13.27
2024-02-04T21:35:56.936Z,16.77
2024-02-04T21:41:31.758Z,14.95
2024-02-04T21:44:19.188Z,14.45
2024-02-04T21:47:06.640Z,19.23
2024-02-04T21:49:55.946Z,18.63
2024-02-04T21:52:43.462Z,19.38
2024-02-04T21:55:30.855Z,13.88
2024-02-04T21:58:18.355Z,13.02
2024-02-04T22:03:53.767Z,19.27
2024-02-04T22:06:42.486Z,15.00
2024-02-04T22:09:29.971Z,17.98
2024-02-04T22:12:17.392Z,21.40
2024-02-04T22:15:09.091Z,18.15
2024-02-04T22:18:00.208Z,18.13
2024-02-04T22:20:49.032Z,14.73
2024-02-04T22:23:38.605Z,21.00
2024-02-04T22:26:26.029Z,20.25
2024-02-04T22:29:13.866Z,16.95
2024-02-04T22:32:04.263Z,22.00
2024-02-04T22:34:54.111Z,14.30
2024-02-04T22:37:42.240Z,18.98
2024-02-04T22:43:17.178Z,18.00
2024-02-04T22:48:52.938Z,22.17
2024-02-04T22:51:40.692Z,17.42
2024-02-04T22:54:28.177Z,15.13
2024-02-04T22:57:15.795Z,17.35
2024-02-04T23:03:00.604Z,18.17
2024-02-04T23:05:48.029Z,14.65
2024-02-04T23:08:35.698Z,15.48
2024-02-04T23:14:11.102Z,12.73
2024-02-04T23:16:58.710Z,13.82
2024-02-04T23:19:46.399Z,18.65
2024-02-04T23:22:33.967Z,20.13
2024-02-04T23:28:13.047Z,17.77
2024-02-04T23:33:48.291Z,23.42
2024-02-04T23:36:35.720Z,12.52
2024-02-04T23:39:23.146Z,19.33
2024-02-04T23:42:10.865Z,12.98
2024-02-04T23:44:58.130Z,24.77
2024-02-04T23:47:45.810Z,12.70
2024-02-04T23:50:33.235Z,18.02
2024-02-04T23:53:20.754Z,14.18
2024-02-04T23:56:08.620Z,23.88
2024-02-04T23:58:56.337Z,21.10
